createdAt,value
2019-03-27T00:02:21.918Z,87.32
2019-03-27T00:07:27.887Z,87.37
2019-03-27T00:12:33.761Z,87.54
2019-03-27T00:17:39.716Z,87.34
2019-03-27T00:22:45.660Z,87.24
2019-03-27T00:27:51.728Z,87.16
2019-03-27T00:38:15.284Z,89.17
2019-03-27T00:43:21.119Z,89.18
2019-03-27T00:48:27.018Z,89.27
2019-03-27T00:53:32.809Z,89.41
2019-03-27T00:58:38.719Z,89.55
2019-03-27T01:03:44.939Z,90.42
2019-03-27T01:08:50.777Z,90.41
2019-03-27T01:13:56.946Z,90.79
2019-03-27T01:19:02.824Z,90.91
2019-03-27T01:24:08.699Z,90.73
2019-03-27T01:29:14.529Z,90.78
2019-03-27T01:34:20.327Z,90.92
2019-03-27T01:39:26.374Z,90.70
2019-03-27T01:44:32.268Z,90.93
2019-03-27T01:49:38.153Z,90.88
2019-03-27T01:54:44.308Z,91.02
2019-03-27T01:59:50.116Z,90.89
2019-03-27T02:04:56.078Z,90.82
2019-03-27T02:10:02.060Z,90.95
2019-03-27T02:15:09.256Z,90.87
2019-03-27T02:20:15.303Z,90.56
2019-03-27T02:25:21.622Z,89.66
2019-03-27T02:30:27.492Z,89.31
2019-03-27T02:35:33.328Z,88.99
2019-03-27T02:40:39.184Z,88.76
2019-03-27T02:45:45.218Z,88.43
2019-03-27T02:50:51.107Z,88.32
2019-03-27T02:55:56.960Z,88.74
2019-03-27T03:01:03.128Z,88.42
2019-03-27T03:06:09.110Z,88.46
2019-03-27T03:11:15.149Z,88.66
2019-03-27T03:16:21.011Z,89.19
2019-03-27T03:21:26.813Z,89.31
2019-03-27T03:26:32.690Z,89.38
2019-03-27T03:31:38.699Z,89.95
2019-03-27T03:36:44.610Z,89.88
2019-03-27T03:41:50.563Z,89.56
2019-03-27T03:47:00.289Z,90.24
2019-03-27T03:52:04.141Z,90.50
2019-03-27T03:57:10.858Z,90.96
2019-03-27T04:02:17.512Z,91.00
2019-03-27T04:07:23.363Z,91.22
2019-03-27T04:12:29.245Z,91.52
2019-03-27T04:17:35.359Z,92.27
2019-03-27T04:22:41.270Z,92.87
2019-03-27T04:27:47.098Z,93.20
2019-03-27T04:32:53.033Z,93.43
2019-03-27T04:37:58.965Z,93.35
2019-03-27T04:43:04.974Z,93.90
2019-03-27T04:48:10.839Z,94.27
2019-03-27T04:53:16.713Z,94.54
2019-03-27T04:58:22.708Z,94.56
2019-03-27T05:03:28.582Z,94.75
2019-03-27T05:08:34.410Z,94.94
2019-03-27T05:13:40.301Z,94.91
2019-03-27T05:18:46.157Z,95.07
2019-03-27T05:23:51.988Z,95.03
2019-03-27T05:28:58.150Z,95.28
2019-03-27T05:34:03.934Z,95.58
2019-03-27T05:39:09.808Z,95.66
2019-03-27T05:44:15.658Z,95.44
2019-03-27T05:49:21.503Z,95.37
2019-03-27T05:54:27.573Z,95.38
2019-03-27T05:59:33.378Z,95.34
2019-03-27T06:04:39.188Z,95.61
2019-03-27T06:09:45.128Z,95.63
2019-03-27T06:14:51.268Z,95.40
2019-03-27T06:19:57.173Z,95.40
2019-03-27T06:25:03.041Z,95.51
2019-03-27T06:30:09.453Z,95.27
2019-03-27T06:35:15.368Z,95.41
2019-03-27T06:40:21.548Z,94.94
2019-03-27T06:45:27.403Z,95.07
2019-03-27T06:50:33.208Z,95.50
2019-03-27T06:55:39.122Z,95.61
2019-03-27T07:00:45.194Z,95.88
2019-03-27T07:05:51.174Z,96.49
2019-03-27T07:10:57.068Z,96.81
2019-03-27T07:16:03.000Z,96.37
2019-03-27T07:21:09.153Z,95.63
2019-03-27T07:26:15.274Z,95.11
2019-03-27T07:31:21.294Z,94.63
2019-03-27T07:36:27.537Z,94.36
2019-03-27T07:41:33.463Z,93.01
2019-03-27T07:46:39.563Z,91.58
2019-03-27T07:51:45.456Z,91.42
2019-03-27T07:56:51.511Z,91.00
2019-03-27T08:01:57.659Z,89.76
2019-03-27T08:07:03.833Z,87.27
2019-03-27T08:12:09.813Z,87.14
2019-03-27T08:17:15.733Z,86.78
2019-03-27T08:22:21.801Z,86.82
2019-03-27T08:27:27.674Z,87.13
2019-03-27T08:32:33.571Z,87.20
2019-03-27T08:37:39.542Z,87.71
2019-03-27T08:42:45.763Z,87.43
2019-03-27T08:47:51.728Z,87.53
2019-03-27T08:52:57.754Z,87.34
2019-03-27T08:58:03.777Z,85.68
2019-03-27T09:03:09.642Z,84.29
2019-03-27T09:08:15.627Z,80.86
2019-03-27T09:13:22.442Z,80.86
2019-03-27T09:18:28.498Z,74.88
2019-03-27T09:23:37.485Z,71.23
2019-03-27T09:28:43.890Z,63.51
2019-03-27T09:33:49.888Z,53.40
2019-03-27T09:38:57.779Z,53.40
2019-03-27T09:44:03.746Z,51.77
2019-03-27T09:49:10.653Z,49.40
2019-03-27T09:54:16.678Z,48.61
2019-03-27T09:59:22.933Z,47.84
2019-03-27T10:04:30.828Z,45.88
2019-03-27T10:09:37.304Z,45.57
2019-03-27T10:14:43.386Z,43.24
2019-03-27T10:20:02.535Z,43.19
2019-03-27T10:24:56.988Z,42.30
2019-03-27T10:30:03.148Z,41.50
2019-03-27T10:35:09.303Z,41.61
2019-03-27T10:40:16.478Z,40.76
2019-03-27T10:45:22.588Z,40.28
2019-03-27T10:50:28.569Z,40.00
2019-03-27T10:55:34.716Z,41.12
2019-03-27T11:00:40.483Z,39.16
2019-03-27T11:05:46.718Z,40.89
2019-03-27T11:10:52.875Z,41.78
2019-03-27T11:15:59.070Z,44.35
2019-03-27T11:21:05.054Z,45.87
2019-03-27T11:26:11.354Z,44.97
2019-03-27T11:31:17.488Z,44.24
2019-03-27T11:36:23.338Z,49.53
2019-03-27T11:41:29.448Z,50.25
2019-03-27T11:46:35.930Z,51.49
2019-03-27T11:51:41.955Z,52.96
2019-03-27T11:56:48.153Z,51.57
2019-03-27T12:01:54.062Z,52.00
2019-03-27T12:07:00.588Z,47.49
2019-03-27T12:12:06.503Z,46.97
2019-03-27T12:17:12.378Z,45.95
2019-03-27T12:22:19.446Z,43.18
2019-03-27T12:27:25.688Z,44.66
2019-03-27T12:32:32.376Z,48.64
2019-03-27T12:37:38.679Z,45.64
2019-03-27T12:42:44.595Z,44.77
2019-03-27T12:47:50.850Z,45.21
2019-03-27T12:52:56.829Z,45.91
2019-03-27T12:58:02.870Z,49.52
2019-03-27T13:03:09.619Z,47.33
2019-03-27T13:08:15.548Z,46.25
2019-03-27T13:13:21.509Z,45.99
2019-03-27T13:18:27.675Z,45.17
2019-03-27T13:23:33.610Z,45.30
2019-03-27T13:28:48.856Z,47.77
2019-03-27T13:33:50.377Z,58.41
2019-03-27T13:38:56.323Z,63.11
2019-03-27T13:44:02.549Z,64.52
2019-03-27T13:49:08.794Z,61.73
2019-03-27T13:54:14.745Z,63.79
2019-03-27T13:59:21.083Z,58.13
2019-03-27T14:04:27.383Z,51.35
2019-03-27T14:09:33.294Z,48.72
2019-03-27T14:14:49.779Z,52.14
2019-03-27T14:19:47.228Z,50.76
2019-03-27T14:24:53.158Z,53.67
2019-03-27T14:29:59.078Z,52.78
2019-03-27T14:35:05.268Z,55.23
2019-03-27T14:40:11.629Z,54.42
2019-03-27T14:45:17.748Z,52.48
2019-03-27T14:50:23.744Z,51.04
2019-03-27T14:55:29.916Z,52.18
2019-03-27T15:00:36.051Z,53.48
2019-03-27T15:05:42.148Z,48.72
2019-03-27T15:10:48.128Z,52.34
2019-03-27T15:15:54.422Z,51.94
2019-03-27T15:21:03.058Z,53.46
2019-03-27T15:26:11.728Z,53.88
2019-03-27T15:31:20.751Z,56.27
2019-03-27T15:36:28.498Z,55.33
2019-03-27T15:41:36.444Z,57.37
2019-03-27T15:46:42.442Z,56.83
2019-03-27T15:51:48.327Z,57.22
2019-03-27T15:56:56.953Z,53.53
2019-03-27T16:02:04.411Z,55.45
2019-03-27T16:07:10.483Z,55.88
2019-03-27T16:12:16.363Z,56.76
2019-03-27T16:17:22.408Z,57.79
2019-03-27T16:22:28.285Z,58.83
2019-03-27T16:27:37.283Z,58.54
2019-03-27T16:32:43.388Z,59.62
2019-03-27T16:37:49.300Z,59.46
2019-03-27T16:42:58.291Z,57.85
2019-03-27T16:48:04.479Z,58.85
2019-03-27T16:53:10.358Z,60.83
2019-03-27T16:58:16.203Z,62.44
2019-03-27T17:03:22.182Z,63.50
2019-03-27T17:08:30.704Z,64.89
2019-03-27T17:13:36.666Z,66.42
2019-03-27T17:18:42.654Z,67.28
2019-03-27T17:23:48.886Z,67.60
2019-03-27T17:28:55.408Z,68.63
2019-03-27T17:34:01.654Z,69.74
2019-03-27T17:39:09.593Z,70.57
2019-03-27T17:44:15.623Z,71.48
2019-03-27T17:49:24.595Z,72.06
2019-03-27T17:54:30.879Z,72.84
2019-03-27T17:59:36.894Z,73.42
2019-03-27T18:04:43.238Z,74.06
2019-03-27T18:09:49.287Z,74.92
2019-03-27T18:14:55.199Z,75.42
2019-03-27T18:20:01.048Z,75.66
2019-03-27T18:25:07.568Z,76.01
2019-03-27T18:30:13.815Z,76.58
2019-03-27T18:35:19.638Z,77.87
2019-03-27T18:40:25.555Z,78.55
2019-03-27T18:45:31.493Z,80.00
2019-03-27T18:50:37.592Z,80.54
2019-03-27T18:55:43.772Z,80.90
2019-03-27T19:00:49.832Z,81.47
2019-03-27T19:05:56.977Z,81.66
2019-03-27T19:11:02.953Z,82.07
2019-03-27T19:16:08.952Z,83.71
2019-03-27T19:21:15.232Z,84.60
2019-03-27T19:26:21.537Z,84.95
2019-03-27T19:31:27.814Z,85.62
2019-03-27T19:36:33.852Z,86.49
2019-03-27T19:41:39.937Z,86.63
2019-03-27T19:46:46.460Z,87.45
2019-03-27T19:51:52.498Z,88.45
2019-03-27T19:56:59.094Z,88.70
2019-03-27T20:02:05.232Z,89.01
2019-03-27T20:07:11.936Z,89.14
2019-03-27T20:12:19.592Z,89.47
2019-03-27T20:17:25.495Z,90.02
2019-03-27T20:22:31.895Z,90.25
2019-03-27T20:27:38.131Z,90.40
2019-03-27T20:32:44.317Z,90.55
2019-03-27T20:37:50.396Z,90.50
2019-03-27T20:42:56.333Z,90.73
2019-03-27T20:48:02.451Z,90.78
2019-03-27T20:53:08.451Z,90.66
2019-03-27T20:58:15.432Z,90.46
2019-03-27T21:03:21.532Z,90.29
2019-03-27T21:08:27.752Z,90.19
2019-03-27T21:13:33.826Z,89.63
2019-03-27T21:18:39.792Z,88.83
2019-03-27T21:23:45.653Z,88.94
2019-03-27T21:28:51.572Z,88.94
2019-03-27T21:33:57.888Z,90.60
2019-03-27T21:39:07.510Z,90.12
2019-03-27T21:44:13.696Z,90.20
2019-03-27T21:49:19.705Z,90.10
2019-03-27T21:54:26.737Z,91.95
2019-03-27T21:59:33.752Z,92.62
2019-03-27T22:04:39.905Z,93.02
2019-03-27T22:09:45.855Z,91.98
2019-03-27T22:14:51.975Z,90.83
2019-03-27T22:19:58.060Z,89.87
2019-03-27T22:25:04.517Z,89.62
2019-03-27T22:30:11.826Z,90.68
2019-03-27T22:35:20.621Z,92.12
2019-03-27T22:40:26.652Z,93.06
2019-03-27T22:45:35.132Z,92.13
2019-03-27T22:50:41.215Z,92.18
2019-03-27T22:55:50.242Z,91.99
2019-03-27T23:00:56.084Z,91.95
2019-03-27T23:06:02.131Z,91.44
2019-03-27T23:11:08.308Z,91.64
2019-03-27T23:16:14.632Z,91.01
2019-03-27T23:21:20.778Z,91.33
2019-03-27T23:26:26.912Z,91.39
2019-03-27T23:31:33.332Z,91.87
2019-03-27T23:36:39.464Z,92.83
2019-03-27T23:41:45.522Z,92.67
2019-03-27T23:46:51.603Z,92.73
2019-03-27T23:51:57.754Z,93.19
2019-03-27T23:57:03.869Z,93.29
